Time;durP1;ratioP1;P1;durP2;ratioP2;P2;SDS_P1;SDS_P2;PMS_P1;PMS_P2;Temp;Humidity;BMP_temperature;BMP_pressure;BME280_temperature;BME280_humidity;BME280_pressure;Samples;Min_cycle;Max_cycle;Signal;HPM_P1;HPM_P2
2021/07/01 00:00:43;;;;;;;28.02;15.27;;;14.70;99.90;;;;;;6669734;89;20206;-77
2021/07/01 00:10:44;;;;;;;23.17;13.68;;;14.60;99.90;;;;;;6673997;88;20172;-77
2021/07/01 00:20:44;;;;;;;17.87;10.18;;;14.30;99.90;;;;;;6672222;88;20215;-77
2021/07/01 00:30:45;;;;;;;10.30;4.70;;;14.30;99.90;;;;;;6671954;88;20274;-77
2021/07/01 00:40:46;;;;;;;7.45;4.00;;;14.20;99.90;;;;;;6671349;89;20945;-77
2021/07/01 00:50:48;;;;;;;7.75;3.30;;;14.10;99.90;;;;;;6670509;89;20288;-77
2021/07/01 01:01:01;;;;;;;6.72;3.58;;;14.10;99.90;;;;;;6670018;89;20257;-77
2021/07/01 01:11:02;;;;;;;6.97;3.50;;;14.10;99.90;;;;;;6670681;88;20198;-77
2021/07/01 01:21:03;;;;;;;7.15;4.22;;;13.90;99.90;;;;;;6665800;89;20218;-77
2021/07/01 01:31:04;;;;;;;9.82;4.97;;;13.70;99.90;;;;;;6670098;89;20184;-77
2021/07/01 01:41:04;;;;;;;11.32;5.93;;;13.70;99.90;;;;;;6668970;89;20291;-77
2021/07/01 01:51:05;;;;;;;10.35;5.47;;;13.80;99.90;;;;;;6669228;89;20187;-77
2021/07/01 02:01:06;;;;;;;10.52;5.35;;;13.80;99.90;;;;;;6667408;88;20206;-77
2021/07/01 02:11:06;;;;;;;8.20;3.70;;;13.70;99.90;;;;;;6665752;89;20191;-77
2021/07/01 02:21:07;;;;;;;7.05;4.45;;;13.50;99.90;;;;;;6665422;89;20820;-77
2021/07/01 02:31:07;;;;;;;9.93;4.60;;;13.40;99.90;;;;;;6678170;88;20574;-77
2021/07/01 02:41:08;;;;;;;8.32;4.15;;;13.50;99.90;;;;;;6676220;88;20514;-78
2021/07/01 02:51:08;;;;;;;8.82;4.57;;;13.50;99.90;;;;;;6673435;89;20254;-77
2021/07/01 03:01:09;;;;;;;7.90;4.75;;;13.50;99.90;;;;;;6670773;88;20201;-77
2021/07/01 03:11:09;;;;;;;7.10;4.40;;;13.40;99.90;;;;;;6671031;88;20407;-76
2021/07/01 03:21:10;;;;;;;9.23;4.78;;;13.50;99.90;;;;;;6669259;89;20232;-77
2021/07/01 03:31:12;;;;;;;10.30;5.03;;;13.60;99.90;;;;;;6669565;88;20192;-77
2021/07/01 03:41:12;;;;;;;6.70;5.03;;;13.50;99.90;;;;;;6667935;89;20338;-76
2021/07/01 03:51:13;;;;;;;7.93;4.90;;;13.60;99.90;;;;;;6666931;89;20223;-77
2021/07/01 04:01:13;;;;;;;8.70;4.87;;;13.60;99.90;;;;;;6667210;89;20179;-76
2021/07/01 04:11:14;;;;;;;8.85;4.87;;;13.60;99.90;;;;;;6666787;89;20368;-77
2021/07/01 04:21:15;;;;;;;9.00;5.43;;;13.60;99.90;;;;;;6666172;89;20604;-77
2021/07/01 04:31:16;;;;;;;9.63;5.47;;;13.70;99.90;;;;;;6674365;88;20629;-77
2021/07/01 04:41:20;;;;;;;13.38;6.57;;;13.80;99.90;;;;;;6666818;89;20206;-77
2021/07/01 04:51:20;;;;;;;12.52;6.45;;;13.90;99.90;;;;;;6666924;89;20698;-77
2021/07/01 05:01:21;;;;;;;12.23;7.50;;;14.00;99.90;;;;;;6665911;88;20203;-76
2021/07/01 05:11:21;;;;;;;16.15;7.82;;;14.00;99.90;;;;;;6657946;88;20554;-76
2021/07/01 05:21:22;;;;;;;15.25;7.87;;;14.10;99.90;;;;;;6665645;89;20650;-76
2021/07/01 05:31:22;;;;;;;16.40;7.37;;;14.20;99.90;;;;;;6666318;88;21172;-76
2021/07/01 05:41:23;;;;;;;19.42;8.13;;;14.20;99.90;;;;;;6662640;88;20253;-76
2021/07/01 05:51:25;;;;;;;16.47;7.87;;;14.20;99.90;;;;;;6669886;88;20325;-77
2021/07/01 06:01:25;;;;;;;17.50;7.78;;;14.30;99.90;;;;;;6670369;89;21187;-78
2021/07/01 06:11:26;;;;;;;15.52;7.00;;;14.20;99.90;;;;;;6675269;89;20232;-77
2021/07/01 06:21:27;;;;;;;24.80;8.18;;;14.10;99.90;;;;;;6674733;89;20226;-75
2021/07/01 06:31:28;;;;;;;17.12;8.43;;;14.00;99.90;;;;;;6659162;85;24073;-76
2021/07/01 06:41:31;;;;;;;18.00;8.27;;;14.00;99.90;;;;;;6594908;89;20206;-76
2021/07/01 06:51:41;;;;;;;17.92;7.05;;;14.00;99.90;;;;;;6594513;89;20802;-76
2021/07/01 07:01:42;;;;;;;14.25;6.18;;;14.20;99.90;;;;;;6596511;89;20187;-75
2021/07/01 07:11:44;;;;;;;14.98;7.28;;;14.20;99.90;;;;;;6605939;89;20199;-76
2021/07/01 07:21:46;;;;;;;14.32;6.82;;;14.40;99.90;;;;;;6608724;89;20191;-77
2021/07/01 07:31:47;;;;;;;17.45;7.37;;;14.50;99.90;;;;;;6622144;88;20194;-77
2021/07/01 07:41:48;;;;;;;14.00;5.75;;;14.40;99.90;;;;;;6604670;89;20261;-76
2021/07/01 07:51:51;;;;;;;14.13;6.07;;;13.90;99.90;;;;;;6611887;89;20214;-77
2021/07/01 08:01:52;;;;;;;13.23;6.32;;;13.40;99.90;;;;;;6611156;89;20250;-77
2021/07/01 08:11:54;;;;;;;13.95;6.75;;;13.50;99.90;;;;;;6611515;89;20285;-77
2021/07/01 08:21:55;;;;;;;13.02;7.10;;;13.40;99.90;;;;;;6616600;89;20657;-77
2021/07/01 08:32:05;;;;;;;13.87;7.30;;;13.70;99.90;;;;;;6611312;89;20223;-77
2021/07/01 08:42:12;;;;;;;22.70;8.63;;;13.80;99.90;;;;;;6611637;89;20274;-77
2021/07/01 08:52:15;;;;;;;18.58;8.70;;;13.80;99.90;;;;;;6608877;89;20207;-77
2021/07/01 09:02:16;;;;;;;20.83;8.73;;;13.80;99.90;;;;;;6606995;89;20670;-77
2021/07/01 09:12:20;;;;;;;18.85;9.15;;;14.00;99.90;;;;;;6606439;89;20205;-77
2021/07/01 09:22:22;;;;;;;16.77;8.10;;;14.00;99.90;;;;;;6608936;89;20182;-77
2021/07/01 09:32:27;;;;;;;20.33;8.90;;;14.00;99.90;;;;;;6604947;89;20183;-77
2021/07/01 09:42:31;;;;;;;14.47;8.03;;;14.20;99.90;;;;;;6610964;89;20198;-76
2021/07/01 09:52:34;;;;;;;14.18;6.37;;;14.60;99.90;;;;;;6606400;89;20322;-76
2021/07/01 10:02:36;;;;;;;11.27;5.82;;;15.60;99.90;;;;;;6611495;88;20682;-77
2021/07/01 10:12:57;;;;;;;13.65;6.72;;;15.90;99.90;;;;;;6609012;89;20230;-77
2021/07/01 10:22:59;;;;;;;9.30;6.03;;;16.40;99.90;;;;;;6607158;89;20194;-77
2021/07/01 10:33:00;;;;;;;8.00;5.60;;;17.10;99.90;;;;;;6606415;89;20245;-77
2021/07/01 10:43:00;;;;;;;9.73;5.30;;;17.40;99.90;;;;;;6606149;89;20205;-77
2021/07/01 10:53:01;;;;;;;8.50;5.32;;;17.50;99.90;;;;;;6612406;89;20817;-76
2021/07/01 11:03:03;;;;;;;11.65;5.65;;;16.70;99.90;;;;;;6600177;88;20307;-75
2021/07/01 11:13:10;;;;;;;10.85;6.00;;;16.20;99.90;;;;;;6594952;89;20226;-78
2021/07/01 11:23:20;;;;;;;10.40;5.90;;;16.00;99.90;;;;;;6602792;89;20203;-77
2021/07/01 11:33:22;;;;;;;8.23;4.72;;;16.30;99.90;;;;;;6602103;88;20847;-76
2021/07/01 11:43:23;;;;;;;9.27;5.10;;;16.00;99.90;;;;;;6602546;89;20267;-79
2021/07/01 11:53:25;;;;;;;10.25;4.22;;;16.10;99.90;;;;;;6605049;89;21127;-78
2021/07/01 12:03:28;;;;;;;7.22;4.12;;;15.90;99.90;;;;;;6602312;89;20245;-79
2021/07/01 12:13:32;;;;;;;7.95;4.15;;;15.90;99.90;;;;;;6599988;89;20947;-78
2021/07/01 12:23:46;;;;;;;6.32;3.65;;;16.00;99.90;;;;;;6597928;89;20682;-78
2021/07/01 12:33:47;;;;;;;6.60;2.90;;;16.10;99.90;;;;;;6606704;89;20750;-78
2021/07/01 12:43:51;;;;;;;5.30;2.97;;;16.10;99.90;;;;;;6600480;89;20741;-76
2021/07/01 12:53:51;;;;;;;5.32;3.67;;;16.20;99.90;;;;;;6614955;88;20232;-78
2021/07/01 13:03:56;;;;;;;9.20;4.12;;;16.00;99.90;;;;;;6610499;89;20191;-78
2021/07/01 13:13:59;;;;;;;9.30;5.00;;;16.00;99.90;;;;;;6604857;89;20226;-79
2021/07/01 13:24:07;;;;;;;12.55;4.70;;;16.20;99.90;;;;;;6612775;89;20688;-77
2021/07/01 13:34:07;;;;;;;12.00;4.80;;;16.00;99.90;;;;;;6603383;89;20257;-78
2021/07/01 13:44:11;;;;;;;9.55;4.90;;;16.00;99.90;;;;;;6601362;89;20185;-77
2021/07/01 13:54:13;;;;;;;8.13;4.65;;;16.30;99.90;;;;;;6595571;89;20631;-77
2021/07/01 14:04:13;;;;;;;8.82;4.47;;;16.20;99.90;;;;;;6606833;89;20215;-78
2021/07/01 14:14:15;;;;;;;9.20;4.18;;;15.80;99.90;;;;;;6604415;89;20279;-77
2021/07/01 14:24:20;;;;;;;12.20;4.53;;;15.80;99.90;;;;;;6607842;89;20970;-77
2021/07/01 14:34:43;;;;;;;7.93;4.35;;;15.70;99.90;;;;;;6598692;89;20194;-78
2021/07/01 14:44:43;;;;;;;8.80;5.07;;;15.60;99.90;;;;;;6606852;89;20749;-77
2021/07/01 14:54:46;;;;;;;12.52;6.40;;;15.70;99.90;;;;;;6604244;89;20279;-76
2021/07/01 15:04:47;;;;;;;14.15;6.35;;;15.70;99.90;;;;;;6606781;89;20602;-78
2021/07/01 15:14:56;;;;;;;11.52;4.97;;;15.50;99.90;;;;;;6604399;89;20201;-76
2021/07/01 15:24:57;;;;;;;12.10;5.18;;;15.80;99.90;;;;;;6604365;89;20261;-75
2021/07/01 15:34:58;;;;;;;9.65;4.28;;;15.60;99.90;;;;;;6603728;89;20212;-75
2021/07/01 15:44:59;;;;;;;10.00;3.95;;;15.60;99.90;;;;;;6613188;89;20324;-76
2021/07/01 15:54:59;;;;;;;7.68;3.80;;;15.60;99.90;;;;;;6594600;89;20246;-75
2021/07/01 16:05:00;;;;;;;10.43;4.37;;;15.60;99.90;;;;;;6594473;88;20247;-75
2021/07/01 16:15:01;;;;;;;10.50;4.68;;;15.50;99.90;;;;;;6588327;89;20183;-75
2021/07/01 16:25:02;;;;;;;8.40;4.60;;;15.30;99.90;;;;;;6588141;89;20236;-75
2021/07/01 16:35:03;;;;;;;11.63;5.07;;;15.40;99.90;;;;;;6587819;89;20240;-75
2021/07/01 16:45:05;;;;;;;11.82;5.28;;;15.20;99.90;;;;;;6594357;89;20301;-75
2021/07/01 16:55:07;;;;;;;10.98;5.43;;;15.00;99.90;;;;;;6593581;89;20246;-75
2021/07/01 17:05:08;;;;;;;14.57;5.68;;;15.10;99.90;;;;;;6593864;89;20211;-75
2021/07/01 17:15:11;;;;;;;12.05;5.32;;;14.90;99.90;;;;;;6596274;89;20313;-75
2021/07/01 17:25:14;;;;;;;10.32;5.43;;;14.80;99.90;;;;;;6598094;89;20186;-74
2021/07/01 17:35:15;;;;;;;12.00;5.55;;;14.80;99.90;;;;;;6586369;89;20199;-74
2021/07/01 17:45:16;;;;;;;13.18;6.30;;;14.80;99.90;;;;;;6586043;89;20311;-74
2021/07/01 17:55:16;;;;;;;11.02;5.40;;;14.90;99.90;;;;;;6586935;89;20647;-74
2021/07/01 18:05:18;;;;;;;10.73;5.45;;;14.90;99.90;;;;;;6595877;89;20209;-75
2021/07/01 18:15:19;;;;;;;10.50;5.72;;;14.90;99.90;;;;;;6606593;89;20320;-74
2021/07/01 18:25:22;;;;;;;11.35;6.03;;;14.80;99.90;;;;;;6591891;89;20212;-74
2021/07/01 18:35:23;;;;;;;11.45;6.10;;;14.80;99.90;;;;;;6590360;89;20312;-76
2021/07/01 18:45:29;;;;;;;12.73;6.35;;;14.80;99.90;;;;;;6594552;89;20692;-76
2021/07/01 18:55:29;;;;;;;15.48;7.35;;;14.80;99.90;;;;;;6602622;89;20690;-74
2021/07/01 19:05:30;;;;;;;15.35;6.70;;;14.80;99.90;;;;;;6600549;89;20246;-74
2021/07/01 19:15:31;;;;;;;14.82;6.87;;;14.60;99.90;;;;;;6601682;89;20301;-74
2021/07/01 19:25:32;;;;;;;15.05;7.25;;;14.50;99.90;;;;;;6603527;89;20253;-74
2021/07/01 19:35:33;;;;;;;13.07;7.65;;;14.30;99.90;;;;;;6598410;89;20251;-76
2021/07/01 19:45:33;;;;;;;18.35;7.82;;;14.10;99.90;;;;;;6617505;88;20726;-76
2021/07/01 19:55:34;;;;;;;18.52;7.40;;;13.90;99.90;;;;;;6627940;89;20194;-76
2021/07/01 20:05:35;;;;;;;16.02;7.75;;;14.00;99.90;;;;;;6593438;89;20263;-76
2021/07/01 20:15:35;;;;;;;16.65;8.05;;;14.00;99.90;;;;;;6621781;88;20902;-76
2021/07/01 20:25:36;;;;;;;19.20;9.05;;;13.90;99.90;;;;;;6595446;89;20195;-76
2021/07/01 20:35:37;;;;;;;20.37;9.05;;;14.10;99.90;;;;;;6592509;88;20627;-77
2021/07/01 20:45:38;;;;;;;19.17;10.00;;;14.00;99.90;;;;;;6595156;89;20201;-75
2021/07/01 20:55:39;;;;;;;16.20;8.82;;;13.70;99.90;;;;;;6600597;89;20269;-74
2021/07/01 21:05:40;;;;;;;20.27;9.82;;;13.80;99.90;;;;;;6597447;89;20175;-76
2021/07/01 21:15:43;;;;;;;18.50;8.73;;;13.70;99.90;;;;;;6613347;89;20777;-76
2021/07/01 21:25:44;;;;;;;22.87;10.07;;;13.80;99.90;;;;;;6602507;89;20233;-77
2021/07/01 21:35:46;;;;;;;17.75;9.02;;;13.90;99.90;;;;;;6601484;89;20247;-75
2021/07/01 21:45:48;;;;;;;18.65;8.68;;;13.90;99.90;;;;;;6601412;89;20187;-76
2021/07/01 21:55:52;;;;;;;21.70;9.63;;;14.00;99.90;;;;;;6609582;88;20181;-75
2021/07/01 22:05:53;;;;;;;18.92;9.18;;;13.90;99.90;;;;;;6602290;89;20218;-76
2021/07/01 22:16:09;;;;;;;21.17;9.93;;;13.90;99.90;;;;;;6609457;89;20216;-76
2021/07/01 22:26:13;;;;;;;17.70;9.18;;;14.00;99.90;;;;;;6588372;89;20996;-75
2021/07/01 22:36:13;;;;;;;20.77;9.55;;;13.90;99.90;;;;;;6593107;89;20252;-76
2021/07/01 22:46:14;;;;;;;21.23;9.50;;;14.10;99.90;;;;;;6611915;89;20217;-76
2021/07/01 22:56:15;;;;;;;21.30;9.77;;;14.00;99.90;;;;;;6601046;89;20230;-77
2021/07/01 23:06:15;;;;;;;20.50;9.85;;;14.00;99.90;;;;;;6602459;89;20304;-77
2021/07/01 23:16:16;;;;;;;27.95;11.05;;;14.00;99.90;;;;;;6610961;89;20356;-77
2021/07/01 23:26:17;;;;;;;21.33;10.43;;;13.90;99.90;;;;;;6604618;89;20310;-77
2021/07/01 23:36:17;;;;;;;23.38;10.18;;;13.90;99.90;;;;;;6610614;89;20295;-77
2021/07/01 23:46:18;;;;;;;20.58;10.85;;;14.00;99.90;;;;;;6628103;89;20206;-77
2021/07/01 23:56:18;;;;;;;25.42;11.00;;;14.10;99.90;;;;;;6602928;89;20207;-78
